Time;durP1;ratioP1;P1;durP2;ratioP2;P2;SDS_P1;SDS_P2;PMS_P1;PMS_P2;Temp;Humidity;BMP_temperature;BMP_pressure;BME280_temperature;BME280_humidity;BME280_pressure;Samples;Min_cycle;Max_cycle;Signal;HPM_P1;HPM_P2
2021/11/18 00:00:58;;;;;;;23.40;13.10;;;;;;;;;;2058344;28;20175;-57
2021/11/18 00:02:01;;;;;;;29.13;12.87;;;;;;;;;;2059062;28;20159;-60
2021/11/18 00:03:03;;;;;;;19.83;11.50;;;;;;;;;;2062870;28;20193;-58
2021/11/18 00:04:03;;;;;;;33.87;13.77;;;;;;;;;;2058340;28;20174;-58
2021/11/18 00:05:05;;;;;;;24.30;13.30;;;;;;;;;;2058392;28;20185;-55
2021/11/18 00:06:06;;;;;;;27.87;13.70;;;;;;;;;;2050067;28;20182;-57
2021/11/18 00:07:06;;;;;;;29.43;13.50;;;;;;;;;;2054843;28;20185;-55
2021/11/18 00:08:07;;;;;;;31.23;13.33;;;;;;;;;;2058583;28;20186;-56
2021/11/18 00:09:09;;;;;;;25.60;11.77;;;;;;;;;;2062759;28;20587;-57
2021/11/18 00:10:10;;;;;;;27.73;12.20;;;;;;;;;;2047445;28;20210;-54
2021/11/18 00:11:11;;;;;;;23.50;13.33;;;;;;;;;;2062656;28;20177;-54
2021/11/18 00:12:12;;;;;;;26.57;12.17;;;;;;;;;;2059200;28;20277;-58
2021/11/18 00:13:14;;;;;;;23.37;12.17;;;;;;;;;;2058113;28;20181;-56
2021/11/18 00:14:14;;;;;;;29.45;13.40;;;;;;;;;;2055674;28;20261;-57
2021/11/18 00:15:15;;;;;;;24.97;13.10;;;;;;;;;;2059948;28;20183;-58
2021/11/18 00:16:15;;;;;;;29.20;13.23;;;;;;;;;;2057962;28;20225;-57
2021/11/18 00:17:15;;;;;;;30.80;13.43;;;;;;;;;;2063193;28;20662;-54
2021/11/18 00:18:18;;;;;;;22.60;13.27;;;;;;;;;;2055612;28;20189;-55
2021/11/18 00:19:18;;;;;;;25.30;13.50;;;;;;;;;;2062674;28;20216;-58
2021/11/18 00:20:18;;;;;;;25.17;13.13;;;;;;;;;;2058615;28;20194;-58
2021/11/18 00:21:24;;;;;;;25.23;11.53;;;;;;;;;;2056324;28;20217;-55
2021/11/18 00:22:24;;;;;;;23.53;13.47;;;;;;;;;;2055469;28;20206;-57
2021/11/18 00:23:26;;;;;;;23.40;13.13;;;;;;;;;;2058027;28;20175;-55
2021/11/18 00:24:27;;;;;;;22.80;13.63;;;;;;;;;;2048832;28;20244;-57
2021/11/18 00:25:27;;;;;;;28.47;13.40;;;;;;;;;;2058126;28;20734;-57
2021/11/18 00:26:28;;;;;;;28.93;12.77;;;;;;;;;;2060269;28;20194;-56
2021/11/18 00:27:29;;;;;;;19.90;12.40;;;;;;;;;;2061427;28;20201;-58
2021/11/18 00:28:29;;;;;;;25.50;13.47;;;;;;;;;;2056164;28;20252;-58
2021/11/18 00:29:29;;;;;;;31.30;13.23;;;;;;;;;;2056337;28;20190;-58
2021/11/18 00:30:31;;;;;;;26.93;13.87;;;;;;;;;;2056101;28;20213;-56
2021/11/18 00:31:34;;;;;;;27.47;13.23;;;;;;;;;;2058417;28;20182;-58
2021/11/18 00:32:36;;;;;;;22.03;13.97;;;;;;;;;;2057737;28;20294;-60
2021/11/18 00:33:36;;;;;;;34.67;12.27;;;;;;;;;;2058719;28;20185;-58
2021/11/18 00:34:38;;;;;;;22.97;13.97;;;;;;;;;;2057159;28;20201;-58
2021/11/18 00:35:38;;;;;;;24.63;13.73;;;;;;;;;;2053406;28;20191;-58
2021/11/18 00:36:40;;;;;;;23.27;13.30;;;;;;;;;;2059606;28;20170;-54
2021/11/18 00:37:41;;;;;;;24.30;14.00;;;;;;;;;;2059308;28;20198;-55
2021/11/18 00:38:42;;;;;;;22.47;12.63;;;;;;;;;;2057651;28;20558;-56
2021/11/18 00:39:42;;;;;;;27.60;14.00;;;;;;;;;;2049413;29;20226;-54
2021/11/18 00:40:46;;;;;;;21.73;12.67;;;;;;;;;;2052712;28;20186;-54
2021/11/18 00:41:46;;;;;;;26.87;14.23;;;;;;;;;;2065734;28;20188;-54
2021/11/18 00:42:47;;;;;;;29.37;14.50;;;;;;;;;;2062157;28;20170;-59
2021/11/18 00:43:48;;;;;;;26.47;13.57;;;;;;;;;;2065747;28;20174;-59
2021/11/18 00:44:52;;;;;;;25.98;12.65;;;;;;;;;;2061656;28;20193;-56
2021/11/18 00:45:52;;;;;;;19.93;12.27;;;;;;;;;;2065442;28;20177;-55
2021/11/18 00:46:54;;;;;;;20.97;13.13;;;;;;;;;;2061604;28;20523;-57
2021/11/18 00:47:55;;;;;;;18.67;12.57;;;;;;;;;;2049965;28;20286;-58
2021/11/18 00:48:56;;;;;;;25.93;13.20;;;;;;;;;;2057865;28;20774;-58
2021/11/18 00:49:56;;;;;;;27.03;13.40;;;;;;;;;;2058299;28;20162;-56
2021/11/18 00:50:59;;;;;;;24.17;14.33;;;;;;;;;;2057560;28;20194;-57
2021/11/18 00:52:00;;;;;;;24.63;13.37;;;;;;;;;;2057592;28;20318;-56
2021/11/18 00:53:02;;;;;;;24.30;13.70;;;;;;;;;;2058392;28;20229;-59
2021/11/18 00:54:04;;;;;;;31.57;13.87;;;;;;;;;;2066975;28;20300;-56
2021/11/18 00:55:09;;;;;;;19.53;12.67;;;;;;;;;;2059626;28;20182;-56
2021/11/18 00:56:12;;;;;;;28.70;15.83;;;;;;;;;;2066573;28;20895;-54
2021/11/18 00:57:12;;;;;;;28.73;13.93;;;;;;;;;;2058363;28;20245;-56
2021/11/18 00:58:13;;;;;;;30.27;13.17;;;;;;;;;;2050095;28;20758;-56
2021/11/18 00:59:14;;;;;;;30.35;15.48;;;;;;;;;;2056430;28;20725;-55
2021/11/18 01:00:25;;;;;;;32.10;13.23;;;;;;;;;;2058271;28;20183;-57
2021/11/18 01:01:29;;;;;;;24.47;13.80;;;;;;;;;;2052118;28;20202;-56
2021/11/18 01:02:30;;;;;;;29.67;15.40;;;;;;;;;;2049264;28;20289;-54
2021/11/18 01:03:30;;;;;;;32.73;14.83;;;;;;;;;;2049604;28;20829;-55
2021/11/18 01:04:31;;;;;;;25.70;14.47;;;;;;;;;;2054763;28;20234;-58
2021/11/18 01:05:32;;;;;;;24.97;14.30;;;;;;;;;;2057260;28;20233;-57
2021/11/18 01:06:32;;;;;;;26.70;14.10;;;;;;;;;;2057443;28;20182;-57
2021/11/18 01:07:33;;;;;;;25.83;14.53;;;;;;;;;;2055285;28;20182;-54
2021/11/18 01:08:33;;;;;;;30.33;14.73;;;;;;;;;;2047444;29;20199;-57
2021/11/18 01:09:35;;;;;;;23.40;14.93;;;;;;;;;;2057827;28;20170;-57
2021/11/18 01:10:40;;;;;;;28.13;14.80;;;;;;;;;;2056957;28;20221;-57
2021/11/18 01:11:41;;;;;;;25.33;14.57;;;;;;;;;;2058252;28;20175;-57
2021/11/18 01:12:41;;;;;;;29.83;15.40;;;;;;;;;;2057825;28;20564;-56
2021/11/18 01:13:42;;;;;;;27.00;13.47;;;;;;;;;;2058020;28;20182;-54
2021/11/18 01:14:43;;;;;;;26.50;13.77;;;;;;;;;;2057693;28;20182;-53
2021/11/18 01:15:46;;;;;;;30.40;14.53;;;;;;;;;;2065247;28;20676;-58
2021/11/18 01:16:48;;;;;;;37.03;15.07;;;;;;;;;;2057534;28;20174;-57
2021/11/18 01:17:48;;;;;;;25.27;14.40;;;;;;;;;;2058114;28;20198;-54
2021/11/18 01:18:49;;;;;;;30.83;14.27;;;;;;;;;;2058204;28;20186;-56
2021/11/18 01:19:49;;;;;;;29.07;14.67;;;;;;;;;;2050451;29;20179;-57
2021/11/18 01:20:50;;;;;;;26.37;15.07;;;;;;;;;;2050197;29;20183;-55
2021/11/18 01:21:51;;;;;;;30.92;14.68;;;;;;;;;;2049808;29;20269;-57
2021/11/18 01:22:53;;;;;;;24.70;15.17;;;;;;;;;;2057970;28;20209;-57
2021/11/18 01:23:53;;;;;;;27.13;15.43;;;;;;;;;;2057766;28;20177;-57
2021/11/18 01:25:01;;;;;;;24.53;14.57;;;;;;;;;;2057348;28;20174;-59
2021/11/18 01:26:09;;;;;;;28.77;14.97;;;;;;;;;;2057682;28;20234;-57
2021/11/18 01:27:09;;;;;;;28.70;13.47;;;;;;;;;;2057281;28;20584;-55
2021/11/18 01:28:10;;;;;;;29.27;14.90;;;;;;;;;;2057815;28;20245;-55
2021/11/18 01:29:11;;;;;;;33.50;15.40;;;;;;;;;;2065562;28;20180;-55
2021/11/18 01:30:13;;;;;;;29.97;15.03;;;;;;;;;;2057282;28;20182;-58
2021/11/18 01:31:13;;;;;;;25.40;15.47;;;;;;;;;;2057377;28;20170;-56
2021/11/18 01:32:14;;;;;;;27.27;15.77;;;;;;;;;;2057396;28;20206;-57
2021/11/18 01:33:19;;;;;;;32.37;14.67;;;;;;;;;;2057729;28;20250;-57
2021/11/18 01:34:20;;;;;;;27.87;15.20;;;;;;;;;;2057991;28;20178;-59
2021/11/18 01:35:20;;;;;;;29.13;15.37;;;;;;;;;;2057384;28;20822;-56
2021/11/18 01:36:21;;;;;;;29.30;15.23;;;;;;;;;;2057385;28;20182;-57
2021/11/18 01:37:31;;;;;;;23.87;13.40;;;;;;;;;;2055554;28;20187;-55
2021/11/18 01:38:33;;;;;;;25.17;13.30;;;;;;;;;;2064467;28;20194;-57
2021/11/18 01:39:49;;;;;;;26.57;14.40;;;;;;;;;;2064601;28;20182;-54
2021/11/18 01:40:54;;;;;;;29.57;15.80;;;;;;;;;;2056159;29;20171;-58
2021/11/18 01:42:02;;;;;;;27.87;15.03;;;;;;;;;;2056257;28;20194;-54
2021/11/18 01:43:03;;;;;;;26.17;14.10;;;;;;;;;;2062281;28;20272;-54
2021/11/18 01:44:05;;;;;;;28.90;14.87;;;;;;;;;;2058638;28;20170;-58
2021/11/18 01:45:08;;;;;;;37.43;15.17;;;;;;;;;;2058668;28;20181;-54
2021/11/18 01:46:10;;;;;;;28.27;15.33;;;;;;;;;;2058115;28;20170;-53
2021/11/18 01:47:11;;;;;;;29.47;16.27;;;;;;;;;;2057965;28;20177;-55
2021/11/18 01:48:11;;;;;;;29.13;14.97;;;;;;;;;;2058117;28;20213;-55
2021/11/18 01:49:12;;;;;;;27.17;15.23;;;;;;;;;;2058661;28;20253;-58
2021/11/18 01:50:15;;;;;;;30.80;15.43;;;;;;;;;;2056993;28;20186;-56
2021/11/18 01:51:17;;;;;;;29.10;15.00;;;;;;;;;;2057813;28;20213;-54
2021/11/18 01:52:20;;;;;;;27.40;14.37;;;;;;;;;;2057655;28;20198;-58
2021/11/18 01:53:23;;;;;;;25.23;14.17;;;;;;;;;;2057488;28;20186;-54
2021/11/18 01:54:26;;;;;;;23.60;14.90;;;;;;;;;;2057792;28;20178;-54
2021/11/18 01:55:26;;;;;;;24.83;14.80;;;;;;;;;;2049827;28;20788;-57
2021/11/18 01:56:29;;;;;;;30.10;15.23;;;;;;;;;;2056073;28;20178;-58
2021/11/18 01:57:32;;;;;;;28.77;14.63;;;;;;;;;;2048715;29;20191;-55
2021/11/18 01:58:40;;;;;;;30.37;13.90;;;;;;;;;;2050897;28;20199;-57
2021/11/18 01:59:57;;;;;;;22.63;14.27;;;;;;;;;;2057158;28;20174;-55
2021/11/18 02:01:16;;;;;;;37.50;15.73;;;;;;;;;;2057661;28;20260;-56
2021/11/18 02:02:17;;;;;;;28.63;14.23;;;;;;;;;;2073458;23;20213;-58
2021/11/18 02:03:36;;;;;;;26.47;14.77;;;;;;;;;;2079566;28;20192;-60
2021/11/18 02:05:17;;;;;;;26.77;15.17;;;;;;;;;;2079789;28;20703;-60
2021/11/18 02:06:20;;;;;;;22.80;13.83;;;;;;;;;;2080424;28;20653;-60
2021/11/18 02:07:21;;;;;;;31.60;14.97;;;;;;;;;;2072621;28;20184;-61
2021/11/18 02:08:23;;;;;;;28.63;15.90;;;;;;;;;;2080334;28;20191;-60
2021/11/18 02:09:39;;;;;;;30.83;14.40;;;;;;;;;;2090355;28;20179;-62
2021/11/18 02:10:41;;;;;;;21.20;12.90;;;;;;;;;;2080058;28;20176;-62
2021/11/18 02:11:47;;;;;;;23.13;13.50;;;;;;;;;;2080343;28;20255;-62
2021/11/18 02:12:48;;;;;;;23.67;14.07;;;;;;;;;;2081199;28;20592;-63
2021/11/18 02:13:48;;;;;;;28.37;15.03;;;;;;;;;;2080698;28;20196;-62
2021/11/18 02:14:51;;;;;;;25.07;14.80;;;;;;;;;;2080695;28;20172;-60
2021/11/18 02:15:53;;;;;;;26.47;15.17;;;;;;;;;;2088774;28;20164;-60
2021/11/18 02:16:55;;;;;;;25.13;14.17;;;;;;;;;;2080559;28;20192;-61
2021/11/18 02:17:57;;;;;;;28.80;14.97;;;;;;;;;;2080561;28;20223;-61
2021/11/18 02:18:58;;;;;;;26.87;14.93;;;;;;;;;;2072378;28;20231;-57
2021/11/18 02:19:59;;;;;;;27.87;14.93;;;;;;;;;;2078069;28;20259;-62
2021/11/18 02:21:05;;;;;;;27.10;14.68;;;;;;;;;;2073316;28;20187;-62
2021/11/18 02:22:06;;;;;;;35.57;15.63;;;;;;;;;;2080387;28;20176;-63
2021/11/18 02:23:14;;;;;;;22.10;14.32;;;;;;;;;;2072219;28;20661;-60
2021/11/18 02:24:25;;;;;;;25.93;14.13;;;;;;;;;;2078819;28;20534;-62
2021/11/18 02:25:33;;;;;;;24.13;14.17;;;;;;;;;;2079001;28;20760;-60
2021/11/18 02:26:34;;;;;;;29.90;16.33;;;;;;;;;;2072331;28;20169;-62
2021/11/18 02:27:34;;;;;;;27.03;13.97;;;;;;;;;;2070485;28;20657;-60
2021/11/18 02:28:39;;;;;;;29.03;14.43;;;;;;;;;;2080421;28;20211;-60
2021/11/18 02:29:42;;;;;;;27.43;14.47;;;;;;;;;;2081745;28;20168;-61
2021/11/18 02:30:43;;;;;;;24.83;12.77;;;;;;;;;;2086499;28;20262;-60
2021/11/18 02:31:48;;;;;;;26.17;13.47;;;;;;;;;;2080736;28;20176;-60
2021/11/18 02:32:53;;;;;;;25.73;14.93;;;;;;;;;;2074662;28;20176;-60
2021/11/18 02:33:53;;;;;;;24.57;12.90;;;;;;;;;;2081128;28;20168;-59
2021/11/18 02:35:17;;;;;;;25.13;12.77;;;;;;;;;;2066689;28;20181;-60
2021/11/18 02:36:17;;;;;;;28.15;14.07;;;;;;;;;;2081835;28;20176;-61
2021/11/18 02:37:18;;;;;;;25.00;14.13;;;;;;;;;;2089844;28;20195;-60
2021/11/18 02:38:18;;;;;;;30.37;14.77;;;;;;;;;;2082358;28;20266;-61
2021/11/18 02:39:19;;;;;;;23.83;14.00;;;;;;;;;;2086576;28;20222;-58
2021/11/18 02:40:20;;;;;;;23.67;12.63;;;;;;;;;;2081351;28;20191;-60
2021/11/18 02:41:21;;;;;;;23.37;14.40;;;;;;;;;;2081769;28;20180;-59
2021/11/18 02:42:23;;;;;;;21.88;13.13;;;;;;;;;;2080695;28;20702;-60
2021/11/18 02:43:26;;;;;;;24.63;13.88;;;;;;;;;;2073120;28;20189;-60
2021/11/18 02:44:28;;;;;;;23.03;12.90;;;;;;;;;;2074598;28;20227;-59
2021/11/18 02:45:30;;;;;;;28.40;14.83;;;;;;;;;;2081400;28;20251;-58
2021/11/18 02:46:32;;;;;;;32.00;13.80;;;;;;;;;;2082585;28;20202;-57
2021/11/18 02:47:32;;;;;;;27.30;14.65;;;;;;;;;;2087685;28;20175;-56
2021/11/18 02:48:33;;;;;;;22.15;12.63;;;;;;;;;;2074787;28;20165;-58
2021/11/18 02:49:33;;;;;;;26.73;13.77;;;;;;;;;;2081802;28;20191;-59
2021/11/18 02:50:35;;;;;;;22.77;13.57;;;;;;;;;;2081315;28;20168;-58
2021/11/18 02:51:35;;;;;;;24.60;15.53;;;;;;;;;;2081830;28;20612;-57
2021/11/18 02:52:36;;;;;;;29.57;15.17;;;;;;;;;;2081211;28;20196;-60
2021/11/18 02:53:36;;;;;;;22.93;15.13;;;;;;;;;;2079893;28;20229;-58
2021/11/18 02:54:37;;;;;;;23.40;14.27;;;;;;;;;;2074520;28;20681;-60
2021/11/18 02:55:42;;;;;;;23.40;13.35;;;;;;;;;;2080227;28;20201;-57
2021/11/18 02:56:43;;;;;;;32.75;16.23;;;;;;;;;;2073721;28;20183;-60
2021/11/18 02:57:44;;;;;;;29.00;14.97;;;;;;;;;;2080282;28;20232;-59
2021/11/18 02:58:45;;;;;;;31.33;15.30;;;;;;;;;;2080819;28;20173;-60
2021/11/18 02:59:45;;;;;;;28.03;15.87;;;;;;;;;;2081059;28;20553;-57
2021/11/18 03:00:49;;;;;;;29.47;15.03;;;;;;;;;;2088939;28;20187;-57
2021/11/18 03:01:49;;;;;;;29.60;15.03;;;;;;;;;;2074251;28;20269;-52
2021/11/18 03:02:50;;;;;;;23.53;15.17;;;;;;;;;;2082318;28;20200;-59
2021/11/18 03:03:50;;;;;;;27.13;14.00;;;;;;;;;;2082544;28;20208;-54
2021/11/18 03:04:51;;;;;;;24.97;14.47;;;;;;;;;;2080713;28;20227;-55
2021/11/18 03:05:52;;;;;;;28.87;16.77;;;;;;;;;;2069906;28;20739;-54
2021/11/18 03:06:53;;;;;;;31.33;15.47;;;;;;;;;;2073412;28;20181;-59
2021/11/18 03:07:57;;;;;;;29.87;15.40;;;;;;;;;;2080966;28;20257;-56
2021/11/18 03:08:58;;;;;;;25.13;15.33;;;;;;;;;;2080614;28;20183;-57
2021/11/18 03:09:59;;;;;;;31.53;16.17;;;;;;;;;;2079337;28;20177;-59
2021/11/18 03:11:00;;;;;;;29.83;17.00;;;;;;;;;;2080240;28;20192;-56
2021/11/18 03:12:01;;;;;;;30.13;14.33;;;;;;;;;;2080661;28;20173;-58
2021/11/18 03:13:01;;;;;;;36.87;16.73;;;;;;;;;;2089349;28;20184;-62
2021/11/18 03:14:02;;;;;;;26.40;15.23;;;;;;;;;;2088596;28;20200;-61
2021/11/18 03:15:14;;;;;;;23.57;14.73;;;;;;;;;;2081026;28;20839;-59
2021/11/18 03:16:16;;;;;;;24.80;16.57;;;;;;;;;;2072698;28;20177;-60
2021/11/18 03:17:17;;;;;;;24.67;14.57;;;;;;;;;;2081418;28;20199;-62
2021/11/18 03:18:36;;;;;;;33.83;16.60;;;;;;;;;;2080361;28;20180;-56
2021/11/18 03:19:38;;;;;;;26.90;16.67;;;;;;;;;;2081469;28;20622;-59
2021/11/18 03:20:38;;;;;;;23.50;15.77;;;;;;;;;;2080308;28;20173;-59
2021/11/18 03:21:39;;;;;;;28.33;16.30;;;;;;;;;;2078300;28;20185;-57
2021/11/18 03:22:39;;;;;;;35.13;17.70;;;;;;;;;;2080151;28;20196;-59
2021/11/18 03:23:40;;;;;;;24.50;16.10;;;;;;;;;;2081488;28;20580;-60
2021/11/18 03:24:45;;;;;;;25.50;15.63;;;;;;;;;;2078312;28;20272;-61
2021/11/18 03:25:48;;;;;;;29.90;17.20;;;;;;;;;;2081018;28;20242;-61
2021/11/18 03:26:55;;;;;;;33.13;16.03;;;;;;;;;;2074746;28;20164;-59
2021/11/18 03:27:57;;;;;;;32.77;16.93;;;;;;;;;;2081226;28;20179;-61
2021/11/18 03:28:58;;;;;;;27.63;15.47;;;;;;;;;;2071710;28;20855;-61
2021/11/18 03:29:58;;;;;;;28.57;16.20;;;;;;;;;;2081534;28;20231;-59
2021/11/18 03:31:04;;;;;;;29.13;16.93;;;;;;;;;;2088854;28;20225;-59
2021/11/18 03:32:05;;;;;;;21.40;14.63;;;;;;;;;;2089070;28;20691;-50
2021/11/18 03:33:09;;;;;;;20.53;13.73;;;;;;;;;;2083593;28;20203;-60
2021/11/18 03:34:12;;;;;;;30.67;15.63;;;;;;;;;;2078242;28;20171;-60
2021/11/18 03:35:17;;;;;;;25.93;15.40;;;;;;;;;;2072533;28;20177;-58
2021/11/18 03:36:22;;;;;;;24.90;15.43;;;;;;;;;;2072419;28;20302;-60
2021/11/18 03:37:23;;;;;;;23.17;14.97;;;;;;;;;;2080530;28;20185;-61
2021/11/18 03:38:26;;;;;;;26.30;15.80;;;;;;;;;;2080601;28;20168;-60
2021/11/18 03:39:39;;;;;;;21.57;14.20;;;;;;;;;;2079108;28;20254;-58
2021/11/18 03:40:40;;;;;;;26.70;15.63;;;;;;;;;;2072866;28;20243;-60
2021/11/18 03:41:43;;;;;;;23.27;14.97;;;;;;;;;;2081690;28;20184;-58
2021/11/18 03:42:45;;;;;;;25.50;16.23;;;;;;;;;;2081015;28;20299;-60
2021/11/18 03:43:58;;;;;;;23.95;14.75;;;;;;;;;;2073263;28;20173;-58
2021/11/18 03:44:58;;;;;;;25.23;15.63;;;;;;;;;;2080433;28;20172;-61
2021/11/18 03:45:59;;;;;;;29.13;15.47;;;;;;;;;;2088942;28;20172;-60
2021/11/18 03:47:01;;;;;;;27.93;16.50;;;;;;;;;;2080151;28;20183;-60
2021/11/18 03:48:05;;;;;;;24.40;15.60;;;;;;;;;;2075369;28;20185;-62
2021/11/18 03:49:10;;;;;;;29.77;16.73;;;;;;;;;;2080597;28;20180;-58
2021/11/18 03:50:16;;;;;;;26.27;14.40;;;;;;;;;;2077351;28;20173;-62
2021/11/18 03:51:20;;;;;;;25.73;16.53;;;;;;;;;;2077249;28;20184;-61
2021/11/18 03:52:21;;;;;;;30.95;16.55;;;;;;;;;;2085891;28;20537;-59
2021/11/18 03:53:23;;;;;;;26.30;15.68;;;;;;;;;;2084277;28;20188;-61
2021/11/18 03:54:25;;;;;;;24.33;15.90;;;;;;;;;;2077380;28;20196;-58
2021/11/18 03:55:29;;;;;;;29.65;14.60;;;;;;;;;;2080801;28;20656;-62
2021/11/18 03:56:34;;;;;;;25.77;15.25;;;;;;;;;;2074631;28;20378;-56
2021/11/18 03:57:36;;;;;;;29.42;14.98;;;;;;;;;;2079879;28;20183;-61
2021/11/18 03:58:41;;;;;;;22.02;15.00;;;;;;;;;;2080245;28;20176;-59
2021/11/18 03:59:45;;;;;;;34.55;16.40;;;;;;;;;;2073390;28;20196;-60
2021/11/18 04:00:51;;;;;;;30.77;14.80;;;;;;;;;;2072402;28;20259;-63
2021/11/18 04:01:52;;;;;;;27.30;14.80;;;;;;;;;;2088583;28;20225;-59
2021/11/18 04:02:55;;;;;;;24.50;15.83;;;;;;;;;;2080343;28;20192;-61
2021/11/18 04:04:11;;;;;;;24.63;15.53;;;;;;;;;;2083059;28;20174;-57
2021/11/18 04:05:14;;;;;;;31.50;17.00;;;;;;;;;;2081415;28;20244;-60
2021/11/18 04:06:16;;;;;;;22.67;15.68;;;;;;;;;;2073298;28;20181;-61
2021/11/18 04:07:39;;;;;;;28.50;15.90;;;;;;;;;;2084112;28;20179;-57
2021/11/18 04:08:39;;;;;;;32.67;17.75;;;;;;;;;;2081354;28;20231;-59
2021/11/18 04:09:40;;;;;;;26.07;15.10;;;;;;;;;;2081436;28;20164;-58
2021/11/18 04:10:41;;;;;;;28.47;16.73;;;;;;;;;;2089185;28;20553;-59
2021/11/18 04:11:43;;;;;;;26.73;16.37;;;;;;;;;;2081332;28;20180;-58
2021/11/18 04:12:44;;;;;;;27.07;15.33;;;;;;;;;;2081240;28;20659;-59
2021/11/18 04:13:44;;;;;;;29.27;14.88;;;;;;;;;;2073086;28;20197;-62
2021/11/18 04:14:46;;;;;;;23.70;15.38;;;;;;;;;;2081340;28;20176;-60
2021/11/18 04:15:49;;;;;;;31.58;16.35;;;;;;;;;;2081360;28;20948;-57
2021/11/18 04:16:54;;;;;;;30.27;16.47;;;;;;;;;;2082314;28;20168;-59
2021/11/18 04:17:55;;;;;;;24.63;15.93;;;;;;;;;;2081332;28;20207;-60
2021/11/18 04:18:58;;;;;;;23.35;14.68;;;;;;;;;;2081163;28;20168;-57
2021/11/18 04:20:00;;;;;;;26.90;14.80;;;;;;;;;;2079329;28;20177;-60
2021/11/18 04:21:01;;;;;;;26.67;15.07;;;;;;;;;;2080429;28;20175;-58
2021/11/18 04:22:04;;;;;;;29.52;16.42;;;;;;;;;;2080109;28;20259;-61
2021/11/18 04:23:08;;;;;;;23.27;14.07;;;;;;;;;;2078250;28;20771;-59
2021/11/18 04:24:14;;;;;;;26.07;17.07;;;;;;;;;;2072365;28;20175;-60
2021/11/18 04:25:17;;;;;;;23.37;15.50;;;;;;;;;;2072772;28;20676;-58
2021/11/18 04:26:18;;;;;;;33.03;17.90;;;;;;;;;;2072686;28;20177;-61
2021/11/18 04:27:20;;;;;;;26.02;14.65;;;;;;;;;;2081144;28;20164;-58
2021/11/18 04:28:23;;;;;;;21.92;16.33;;;;;;;;;;2080784;28;20183;-62
2021/11/18 04:29:28;;;;;;;26.85;16.60;;;;;;;;;;2081136;28;20552;-59
2021/11/18 04:30:31;;;;;;;28.40;16.60;;;;;;;;;;2081000;28;20278;-61
2021/11/18 04:31:52;;;;;;;28.83;16.70;;;;;;;;;;2090915;28;20171;-56
2021/11/18 04:32:53;;;;;;;29.77;16.43;;;;;;;;;;2082276;28;20477;-58
2021/11/18 04:33:53;;;;;;;28.65;16.27;;;;;;;;;;2082820;28;20180;-59
2021/11/18 04:34:54;;;;;;;32.47;17.20;;;;;;;;;;2082095;28;20188;-59
2021/11/18 04:35:56;;;;;;;29.57;16.30;;;;;;;;;;2073903;28;20180;-59
2021/11/18 04:36:58;;;;;;;20.97;15.30;;;;;;;;;;2081849;28;20649;-61
2021/11/18 04:37:59;;;;;;;25.50;15.63;;;;;;;;;;2081839;28;20192;-59
2021/11/18 04:39:04;;;;;;;29.67;16.47;;;;;;;;;;2081674;28;20180;-61
2021/11/18 04:40:07;;;;;;;26.73;16.63;;;;;;;;;;2074134;28;20177;-56
2021/11/18 04:41:08;;;;;;;30.52;16.95;;;;;;;;;;2081262;28;20187;-61
2021/11/18 04:42:13;;;;;;;22.52;14.38;;;;;;;;;;2081780;28;20243;-59
2021/11/18 04:43:20;;;;;;;23.83;15.83;;;;;;;;;;2082768;28;20180;-59
2021/11/18 04:44:24;;;;;;;31.52;15.95;;;;;;;;;;2081589;28;20172;-58
2021/11/18 04:45:29;;;;;;;26.17;15.70;;;;;;;;;;2082001;28;20164;-57
2021/11/18 04:46:32;;;;;;;23.33;13.83;;;;;;;;;;2083115;28;20191;-59
2021/11/18 04:47:33;;;;;;;26.03;16.73;;;;;;;;;;2073860;28;20172;-59
2021/11/18 04:48:36;;;;;;;22.97;15.47;;;;;;;;;;2082029;28;20176;-59
2021/11/18 04:49:37;;;;;;;27.00;17.37;;;;;;;;;;2082004;28;20693;-60
2021/11/18 04:50:39;;;;;;;29.80;15.70;;;;;;;;;;2081017;28;20180;-56
2021/11/18 04:51:39;;;;;;;23.13;15.40;;;;;;;;;;2081939;28;20176;-56
2021/11/18 04:52:41;;;;;;;22.53;15.53;;;;;;;;;;2082387;28;20680;-59
2021/11/18 04:53:41;;;;;;;26.63;15.73;;;;;;;;;;2082151;28;20176;-59
2021/11/18 04:54:45;;;;;;;27.83;16.23;;;;;;;;;;2074161;28;20165;-58
2021/11/18 04:55:46;;;;;;;35.00;16.90;;;;;;;;;;2081549;28;20176;-60
2021/11/18 04:56:46;;;;;;;27.90;15.13;;;;;;;;;;2082003;28;20204;-59
2021/11/18 04:57:47;;;;;;;29.43;14.80;;;;;;;;;;2081640;28;20222;-58
2021/11/18 04:58:48;;;;;;;24.00;16.48;;;;;;;;;;2081850;28;20580;-61
2021/11/18 04:59:48;;;;;;;23.03;15.73;;;;;;;;;;2081437;28;20239;-59
2021/11/18 05:00:50;;;;;;;26.20;16.10;;;;;;;;;;2089587;28;20207;-61
2021/11/18 05:01:51;;;;;;;25.10;13.88;;;;;;;;;;2098064;28;20181;-58
2021/11/18 05:02:51;;;;;;;30.57;16.50;;;;;;;;;;2089808;28;20269;-57
2021/11/18 05:03:53;;;;;;;27.00;16.17;;;;;;;;;;2081689;28;20183;-59
2021/11/18 05:04:53;;;;;;;26.73;16.40;;;;;;;;;;2073789;28;20681;-59
2021/11/18 05:05:54;;;;;;;27.40;15.53;;;;;;;;;;2081201;28;20624;-61
2021/11/18 05:06:56;;;;;;;21.77;15.43;;;;;;;;;;2073310;28;20183;-61
2021/11/18 05:07:57;;;;;;;27.60;16.27;;;;;;;;;;2072985;28;20184;-60
2021/11/18 05:08:57;;;;;;;31.70;16.83;;;;;;;;;;2081144;28;20168;-61
2021/11/18 05:09:57;;;;;;;32.50;18.70;;;;;;;;;;2089499;28;20206;-62
2021/11/18 05:10:57;;;;;;;29.03;17.63;;;;;;;;;;2088527;28;20183;-61
2021/11/18 05:12:06;;;;;;;25.10;16.37;;;;;;;;;;2072724;28;20169;-62
2021/11/18 05:13:06;;;;;;;23.77;16.10;;;;;;;;;;2072959;28;20185;-60
2021/11/18 05:14:18;;;;;;;30.17;18.23;;;;;;;;;;2074095;28;20337;-58
2021/11/18 05:15:20;;;;;;;32.47;17.80;;;;;;;;;;2072679;28;20212;-59
2021/11/18 05:16:21;;;;;;;25.53;16.50;;;;;;;;;;2080697;28;20275;-59
2021/11/18 05:17:22;;;;;;;27.07;17.47;;;;;;;;;;2080914;28;20167;-57
2021/11/18 05:18:28;;;;;;;27.13;16.97;;;;;;;;;;2072838;28;20267;-59
2021/11/18 05:19:28;;;;;;;24.20;17.90;;;;;;;;;;2080261;28;20172;-62
2021/11/18 05:20:28;;;;;;;27.13;16.83;;;;;;;;;;2062258;28;20205;-60
2021/11/18 05:21:29;;;;;;;27.97;17.90;;;;;;;;;;2071337;28;20188;-59
2021/11/18 05:22:30;;;;;;;26.43;18.37;;;;;;;;;;2085632;28;20246;-57
2021/11/18 05:23:31;;;;;;;27.37;17.60;;;;;;;;;;2080147;28;20206;-59
2021/11/18 05:24:34;;;;;;;25.03;15.97;;;;;;;;;;2079952;28;20677;-59
2021/11/18 05:25:35;;;;;;;26.23;16.83;;;;;;;;;;2078419;28;20200;-62
2021/11/18 05:26:36;;;;;;;34.20;17.43;;;;;;;;;;2070966;28;20184;-60
2021/11/18 05:27:37;;;;;;;36.37;19.03;;;;;;;;;;2080063;28;20181;-61
2021/11/18 05:28:38;;;;;;;27.53;18.03;;;;;;;;;;2079815;28;20168;-59
2021/11/18 05:29:40;;;;;;;27.27;17.27;;;;;;;;;;2078983;28;20641;-59
2021/11/18 05:30:42;;;;;;;30.50;18.58;;;;;;;;;;2071298;28;20664;-59
2021/11/18 05:31:42;;;;;;;28.40;18.67;;;;;;;;;;2065888;28;20304;-59
2021/11/18 05:32:57;;;;;;;30.93;18.73;;;;;;;;;;2068162;28;20209;-58
2021/11/18 05:34:00;;;;;;;30.33;17.73;;;;;;;;;;2071606;28;20304;-58
2021/11/18 05:35:07;;;;;;;27.77;16.48;;;;;;;;;;2078619;28;20188;-61
2021/11/18 05:36:08;;;;;;;28.77;17.53;;;;;;;;;;2080144;28;20531;-59
2021/11/18 05:37:08;;;;;;;27.30;18.60;;;;;;;;;;2077707;28;20214;-61
2021/11/18 05:38:10;;;;;;;32.27;17.40;;;;;;;;;;2080525;28;20195;-61
2021/11/18 05:39:14;;;;;;;26.47;16.90;;;;;;;;;;2080663;28;20169;-59
2021/11/18 05:40:24;;;;;;;26.53;18.30;;;;;;;;;;2079922;28;20230;-62
2021/11/18 05:41:25;;;;;;;30.30;19.73;;;;;;;;;;2072138;28;20182;-59
2021/11/18 05:42:26;;;;;;;35.88;19.75;;;;;;;;;;2072163;28;20201;-61
2021/11/18 05:43:29;;;;;;;37.30;19.50;;;;;;;;;;2080349;28;20164;-61
2021/11/18 05:44:30;;;;;;;26.30;19.13;;;;;;;;;;2079934;28;20546;-61
2021/11/18 05:45:33;;;;;;;27.17;16.63;;;;;;;;;;2079208;28;20188;-62
2021/11/18 05:46:42;;;;;;;30.87;19.37;;;;;;;;;;2074515;28;20173;-59
2021/11/18 05:47:42;;;;;;;28.17;18.30;;;;;;;;;;2079526;28;20731;-62
2021/11/18 05:48:43;;;;;;;34.57;17.80;;;;;;;;;;2079481;28;20222;-58
2021/11/18 05:49:44;;;;;;;26.92;18.70;;;;;;;;;;2071888;28;20707;-59
2021/11/18 05:50:54;;;;;;;35.87;19.20;;;;;;;;;;2073289;28;20184;-58
2021/11/18 05:51:56;;;;;;;30.63;20.13;;;;;;;;;;2079745;28;20175;-61
2021/11/18 05:52:59;;;;;;;32.10;20.10;;;;;;;;;;2075293;28;20173;-59
2021/11/18 05:53:59;;;;;;;28.20;17.40;;;;;;;;;;2071491;28;20669;-61
2021/11/18 05:55:00;;;;;;;38.73;19.13;;;;;;;;;;2061635;28;20253;-59
2021/11/18 05:56:03;;;;;;;29.57;19.77;;;;;;;;;;2071412;28;20210;-58
2021/11/18 05:57:05;;;;;;;33.63;19.70;;;;;;;;;;2069385;28;20283;-56
2021/11/18 05:58:06;;;;;;;37.95;20.15;;;;;;;;;;2069372;28;20208;-58
2021/11/18 05:59:09;;;;;;;28.10;19.23;;;;;;;;;;2077372;28;20176;-61
2021/11/18 06:00:11;;;;;;;36.27;20.40;;;;;;;;;;2079016;28;20211;-59
2021/11/18 06:01:23;;;;;;;35.90;20.73;;;;;;;;;;2079617;28;20172;-61
2021/11/18 06:02:23;;;;;;;32.22;19.92;;;;;;;;;;2088333;28;20714;-59
2021/11/18 06:03:24;;;;;;;35.60;21.67;;;;;;;;;;2081670;28;20180;-61
2021/11/18 06:04:25;;;;;;;33.13;20.85;;;;;;;;;;2071907;28;20176;-59
2021/11/18 06:05:33;;;;;;;29.27;18.20;;;;;;;;;;2080866;28;20195;-61